sensor_id;sensor_type;location;lat;lon;timestamp;pressure;altitude;pressure_sealevel;temperature;humidity
6514;BME280;3290;47.716;9.070;2023-08-06T00:01:11;96348.94;;;18.11;96.18
6514;BME280;3290;47.716;9.070;2023-08-06T00:03:37;96337.53;;;18.44;95.79
6514;BME280;3290;47.716;9.070;2023-08-06T00:06:02;96343.50;;;18.26;95.49
6514;BME280;3290;47.716;9.070;2023-08-06T00:08:29;96338.91;;;18.42;95.84
6514;BME280;3290;47.716;9.070;2023-08-06T00:10:55;96333.44;;;18.23;95.92
6514;BME280;3290;47.716;9.070;2023-08-06T00:13:20;96335.63;;;18.16;96.30
6514;BME280;3290;47.716;9.070;2023-08-06T00:15:45;96341.88;;;18.30;97.03
6514;BME280;3290;47.716;9.070;2023-08-06T00:18:11;96337.75;;;18.14;97.66
6514;BME280;3290;47.716;9.070;2023-08-06T00:20:39;96343.63;;;18.06;98.44
6514;BME280;3290;47.716;9.070;2023-08-06T00:23:04;96341.97;;;18.20;99.17
6514;BME280;3290;47.716;9.070;2023-08-06T00:25:29;96350.44;;;18.22;97.81
6514;BME280;3290;47.716;9.070;2023-08-06T00:27:55;96338.00;;;18.18;96.68
6514;BME280;3290;47.716;9.070;2023-08-06T00:30:21;96343.63;;;18.02;98.10
6514;BME280;3290;47.716;9.070;2023-08-06T00:32:46;96330.09;;;18.08;97.40
6514;BME280;3290;47.716;9.070;2023-08-06T00:35:12;96326.34;;;18.14;98.22
6514;BME280;3290;47.716;9.070;2023-08-06T00:37:38;96319.72;;;18.16;98.25
6514;BME280;3290;47.716;9.070;2023-08-06T00:40:05;96324.19;;;18.21;98.27
6514;BME280;3290;47.716;9.070;2023-08-06T00:42:30;96323.97;;;18.12;97.99
6514;BME280;3290;47.716;9.070;2023-08-06T00:44:56;96317.44;;;17.95;100.00
6514;BME280;3290;47.716;9.070;2023-08-06T00:47:21;96310.72;;;18.07;99.11
6514;BME280;3290;47.716;9.070;2023-08-06T00:49:47;96316.34;;;18.01;99.92
6514;BME280;3290;47.716;9.070;2023-08-06T00:52:12;96312.94;;;17.96;98.82
6514;BME280;3290;47.716;9.070;2023-08-06T00:54:39;96309.28;;;17.87;98.10
6514;BME280;3290;47.716;9.070;2023-08-06T00:57:07;96289.56;;;18.03;98.21
6514;BME280;3290;47.716;9.070;2023-08-06T00:59:33;96296.47;;;17.99;99.12
6514;BME280;3290;47.716;9.070;2023-08-06T01:01:59;96305.16;;;18.04;98.95
6514;BME280;3290;47.716;9.070;2023-08-06T01:04:25;96304.22;;;17.90;99.46
6514;BME280;3290;47.716;9.070;2023-08-06T01:17:31;96285.19;;;18.21;98.38
6514;BME280;3290;47.716;9.070;2023-08-06T01:19:57;96283.41;;;18.07;98.46
6514;BME280;3290;47.716;9.070;2023-08-06T01:22:22;96290.31;;;18.08;97.72
6514;BME280;3290;47.716;9.070;2023-08-06T01:24:48;96282.88;;;18.15;98.08
6514;BME280;3290;47.716;9.070;2023-08-06T01:27:23;96276.50;;;18.16;96.81
6514;BME280;3290;47.716;9.070;2023-08-06T01:30:05;96269.38;;;18.11;98.40
6514;BME280;3290;47.716;9.070;2023-08-06T01:32:34;96258.09;;;18.29;97.23
6514;BME280;3290;47.716;9.070;2023-08-06T01:35:02;96267.81;;;18.01;97.93
6514;BME280;3290;47.716;9.070;2023-08-06T01:37:29;96270.03;;;17.89;98.82
6514;BME280;3290;47.716;9.070;2023-08-06T01:39:55;96266.56;;;17.88;97.75
6514;BME280;3290;47.716;9.070;2023-08-06T01:42:20;96264.16;;;17.92;97.65
6514;BME280;3290;47.716;9.070;2023-08-06T01:44:45;96270.63;;;17.76;97.18
6514;BME280;3290;47.716;9.070;2023-08-06T01:47:11;96268.53;;;17.78;98.20
6514;BME280;3290;47.716;9.070;2023-08-06T01:49:36;96274.94;;;18.05;97.25
6514;BME280;3290;47.716;9.070;2023-08-06T01:52:01;96272.19;;;17.87;97.60
6514;BME280;3290;47.716;9.070;2023-08-06T01:54:27;96271.97;;;17.73;98.45
6514;BME280;3290;47.716;9.070;2023-08-06T01:56:53;96267.38;;;17.89;97.31
6514;BME280;3290;47.716;9.070;2023-08-06T01:59:18;96269.63;;;17.67;99.10
6514;BME280;3290;47.716;9.070;2023-08-06T02:01:43;96271.19;;;17.73;100.00
6514;BME280;3290;47.716;9.070;2023-08-06T02:04:09;96265.88;;;17.78;99.89
6514;BME280;3290;47.716;9.070;2023-08-06T02:06:34;96264.53;;;17.75;98.93
6514;BME280;3290;47.716;9.070;2023-08-06T02:08:59;96265.56;;;17.79;99.00
6514;BME280;3290;47.716;9.070;2023-08-06T02:11:25;96256.78;;;17.89;98.99
6514;BME280;3290;47.716;9.070;2023-08-06T02:13:50;96249.66;;;17.79;97.75
6514;BME280;3290;47.716;9.070;2023-08-06T02:16:15;96263.75;;;17.75;97.28
6514;BME280;3290;47.716;9.070;2023-08-06T02:18:41;96266.38;;;17.80;97.46
6514;BME280;3290;47.716;9.070;2023-08-06T02:21:06;96247.66;;;18.04;95.42
6514;BME280;3290;47.716;9.070;2023-08-06T02:23:31;96244.66;;;17.78;96.53
6514;BME280;3290;47.716;9.070;2023-08-06T02:26:01;96245.19;;;17.80;97.42
6514;BME280;3290;47.716;9.070;2023-08-06T02:28:27;96239.47;;;18.01;95.73
6514;BME280;3290;47.716;9.070;2023-08-06T02:30:53;96242.66;;;17.98;95.72
6514;BME280;3290;47.716;9.070;2023-08-06T02:33:18;96241.94;;;17.88;96.11
6514;BME280;3290;47.716;9.070;2023-08-06T02:35:44;96239.63;;;17.76;96.61
6514;BME280;3290;47.716;9.070;2023-08-06T02:38:09;96234.44;;;17.57;93.68
6514;BME280;3290;47.716;9.070;2023-08-06T02:40:34;96237.41;;;17.55;94.62
6514;BME280;3290;47.716;9.070;2023-08-06T02:43:00;96238.72;;;17.96;94.98
6514;BME280;3290;47.716;9.070;2023-08-06T02:45:25;96240.47;;;17.67;93.91
6514;BME280;3290;47.716;9.070;2023-08-06T02:47:50;96234.69;;;17.60;95.12
6514;BME280;3290;47.716;9.070;2023-08-06T02:50:16;96234.19;;;17.53;95.05
6514;BME280;3290;47.716;9.070;2023-08-06T02:52:41;96230.94;;;17.71;94.96
6514;BME280;3290;47.716;9.070;2023-08-06T02:55:07;96223.56;;;17.63;94.47
6514;BME280;3290;47.716;9.070;2023-08-06T02:57:32;96229.28;;;17.80;95.00
6514;BME280;3290;47.716;9.070;2023-08-06T02:59:58;96229.03;;;17.76;94.39
6514;BME280;3290;47.716;9.070;2023-08-06T03:02:23;96224.56;;;17.72;93.46
6514;BME280;3290;47.716;9.070;2023-08-06T03:04:48;96218.91;;;17.83;91.60
6514;BME280;3290;47.716;9.070;2023-08-06T03:07:14;96218.06;;;17.88;91.33
6514;BME280;3290;47.716;9.070;2023-08-06T03:09:39;96207.13;;;17.66;91.64
6514;BME280;3290;47.716;9.070;2023-08-06T03:12:05;96210.66;;;17.85;91.92
6514;BME280;3290;47.716;9.070;2023-08-06T03:14:30;96203.19;;;17.92;92.27
6514;BME280;3290;47.716;9.070;2023-08-06T03:16:56;96195.88;;;17.79;93.09
6514;BME280;3290;47.716;9.070;2023-08-06T03:19:21;96206.84;;;17.67;92.89
6514;BME280;3290;47.716;9.070;2023-08-06T03:21:46;96200.88;;;17.85;91.05
6514;BME280;3290;47.716;9.070;2023-08-06T03:24:13;96192.41;;;17.83;90.36
6514;BME280;3290;47.716;9.070;2023-08-06T03:26:39;96200.13;;;17.80;91.22
6514;BME280;3290;47.716;9.070;2023-08-06T03:29:04;96199.78;;;18.24;89.41
6514;BME280;3290;47.716;9.070;2023-08-06T03:31:29;96199.03;;;17.81;91.53
6514;BME280;3290;47.716;9.070;2023-08-06T03:33:55;96199.03;;;17.81;90.93
6514;BME280;3290;47.716;9.070;2023-08-06T03:36:20;96204.91;;;17.78;89.84
6514;BME280;3290;47.716;9.070;2023-08-06T03:38:46;96211.84;;;17.69;90.04
6514;BME280;3290;47.716;9.070;2023-08-06T03:41:11;96208.13;;;17.70;90.50
6514;BME280;3290;47.716;9.070;2023-08-06T03:43:36;96206.44;;;17.84;90.46
6514;BME280;3290;47.716;9.070;2023-08-06T03:46:02;96207.50;;;17.83;89.91
6514;BME280;3290;47.716;9.070;2023-08-06T03:48:27;96217.72;;;17.66;92.48
6514;BME280;3290;47.716;9.070;2023-08-06T03:50:52;96213.97;;;17.67;91.11
6514;BME280;3290;47.716;9.070;2023-08-06T03:53:18;96212.44;;;17.61;90.33
6514;BME280;3290;47.716;9.070;2023-08-06T03:55:43;96214.59;;;17.59;91.75
6514;BME280;3290;47.716;9.070;2023-08-06T03:58:08;96213.72;;;17.68;90.84
6514;BME280;3290;47.716;9.070;2023-08-06T04:00:34;96206.41;;;17.89;87.93
6514;BME280;3290;47.716;9.070;2023-08-06T04:02:59;96214.78;;;17.67;88.25
6514;BME280;3290;47.716;9.070;2023-08-06T04:05:24;96215.88;;;17.62;90.31
6514;BME280;3290;47.716;9.070;2023-08-06T04:07:50;96219.22;;;17.77;90.49
6514;BME280;3290;47.716;9.070;2023-08-06T04:10:15;96218.59;;;17.90;88.47
6514;BME280;3290;47.716;9.070;2023-08-06T04:12:40;96211.78;;;17.79;88.30
6514;BME280;3290;47.716;9.070;2023-08-06T04:15:06;96214.94;;;17.81;87.44
6514;BME280;3290;47.716;9.070;2023-08-06T04:17:32;96210.66;;;17.85;87.79
6514;BME280;3290;47.716;9.070;2023-08-06T04:19:57;96211.38;;;17.95;88.57
6514;BME280;3290;47.716;9.070;2023-08-06T04:22:24;96216.44;;;17.92;88.89
6514;BME280;3290;47.716;9.070;2023-08-06T04:24:49;96221.59;;;17.78;89.42
6514;BME280;3290;47.716;9.070;2023-08-06T04:27:16;96222.75;;;17.67;88.31
6514;BME280;3290;47.716;9.070;2023-08-06T04:29:42;96233.03;;;17.69;88.27
6514;BME280;3290;47.716;9.070;2023-08-06T04:32:09;96239.88;;;17.80;90.70
6514;BME280;3290;47.716;9.070;2023-08-06T04:34:36;96238.81;;;17.76;90.80
6514;BME280;3290;47.716;9.070;2023-08-06T04:37:03;96247.25;;;17.83;93.35
6514;BME280;3290;47.716;9.070;2023-08-06T04:39:29;96257.53;;;17.51;97.64
6514;BME280;3290;47.716;9.070;2023-08-06T04:41:57;96245.25;;;17.22;98.71
6514;BME280;3290;47.716;9.070;2023-08-06T04:44:23;96248.69;;;17.13;98.01
6514;BME280;3290;47.716;9.070;2023-08-06T04:46:49;96243.97;;;17.00;99.98
6514;BME280;3290;47.716;9.070;2023-08-06T04:49:14;96260.88;;;17.09;99.22
6514;BME280;3290;47.716;9.070;2023-08-06T04:51:40;96259.81;;;17.20;99.06
6514;BME280;3290;47.716;9.070;2023-08-06T04:54:05;96259.28;;;17.18;97.83
6514;BME280;3290;47.716;9.070;2023-08-06T04:56:30;96250.91;;;16.81;98.84
6514;BME280;3290;47.716;9.070;2023-08-06T04:58:58;96258.84;;;16.86;99.43
6514;BME280;3290;47.716;9.070;2023-08-06T05:01:24;96263.88;;;16.73;98.63
6514;BME280;3290;47.716;9.070;2023-08-06T05:03:49;96265.00;;;16.47;95.65
6514;BME280;3290;47.716;9.070;2023-08-06T05:06:15;96261.53;;;16.51;96.35
6514;BME280;3290;47.716;9.070;2023-08-06T05:08:40;96260.47;;;16.67;98.46
6514;BME280;3290;47.716;9.070;2023-08-06T05:11:05;96274.72;;;16.76;99.40
6514;BME280;3290;47.716;9.070;2023-08-06T05:13:31;96274.19;;;16.69;98.95
6514;BME280;3290;47.716;9.070;2023-08-06T05:15:56;96281.09;;;16.60;99.89
6514;BME280;3290;47.716;9.070;2023-08-06T05:18:22;96282.44;;;16.43;99.99
6514;BME280;3290;47.716;9.070;2023-08-06T05:20:47;96292.22;;;16.38;100.00
6514;BME280;3290;47.716;9.070;2023-08-06T05:23:13;96290.94;;;16.40;98.85
6514;BME280;3290;47.716;9.070;2023-08-06T05:25:38;96287.47;;;16.20;98.38
6514;BME280;3290;47.716;9.070;2023-08-06T05:28:04;96299.06;;;16.09;99.03
6514;BME280;3290;47.716;9.070;2023-08-06T05:30:29;96293.56;;;16.25;100.00
6514;BME280;3290;47.716;9.070;2023-08-06T05:32:55;96295.13;;;16.06;100.00
6514;BME280;3290;47.716;9.070;2023-08-06T05:35:21;96309.09;;;15.82;100.00
6514;BME280;3290;47.716;9.070;2023-08-06T05:37:46;96304.63;;;15.98;100.00
6514;BME280;3290;47.716;9.070;2023-08-06T05:40:12;96320.19;;;15.89;100.00
6514;BME280;3290;47.716;9.070;2023-08-06T05:42:37;96312.59;;;16.27;100.00
6514;BME280;3290;47.716;9.070;2023-08-06T05:45:03;96327.03;;;15.75;100.00
6514;BME280;3290;47.716;9.070;2023-08-06T05:47:28;96335.50;;;15.82;100.00
6514;BME280;3290;47.716;9.070;2023-08-06T05:49:54;96337.88;;;15.84;100.00
6514;BME280;3290;47.716;9.070;2023-08-06T05:52:19;96336.03;;;15.84;100.00
6514;BME280;3290;47.716;9.070;2023-08-06T05:54:44;96333.16;;;15.91;100.00
6514;BME280;3290;47.716;9.070;2023-08-06T05:57:10;96338.94;;;15.88;100.00
6514;BME280;3290;47.716;9.070;2023-08-06T05:59:35;96333.94;;;15.96;100.00
6514;BME280;3290;47.716;9.070;2023-08-06T06:02:00;96324.13;;;15.87;98.73
6514;BME280;3290;47.716;9.070;2023-08-06T06:04:26;96343.41;;;15.77;100.00
6514;BME280;3290;47.716;9.070;2023-08-06T06:06:51;96338.72;;;16.09;99.17
6514;BME280;3290;47.716;9.070;2023-08-06T06:09:16;96346.09;;;15.97;100.00
6514;BME280;3290;47.716;9.070;2023-08-06T06:11:42;96336.66;;;16.26;100.00
6514;BME280;3290;47.716;9.070;2023-08-06T06:14:07;96348.22;;;16.05;99.94
6514;BME280;3290;47.716;9.070;2023-08-06T06:16:33;96349.81;;;15.96;100.00
6514;BME280;3290;47.716;9.070;2023-08-06T06:18:59;96352.72;;;16.14;99.66
6514;BME280;3290;47.716;9.070;2023-08-06T06:21:24;96353.34;;;16.36;98.29
6514;BME280;3290;47.716;9.070;2023-08-06T06:23:50;96355.66;;;16.18;99.48
6514;BME280;3290;47.716;9.070;2023-08-06T06:26:17;96347.69;;;16.08;100.00
6514;BME280;3290;47.716;9.070;2023-08-06T06:28:43;96346.88;;;16.02;99.54
6514;BME280;3290;47.716;9.070;2023-08-06T06:31:08;96345.53;;;15.85;99.92
6514;BME280;3290;47.716;9.070;2023-08-06T06:33:34;96342.41;;;16.03;98.52
6514;BME280;3290;47.716;9.070;2023-08-06T06:36:00;96344.28;;;16.17;96.25
6514;BME280;3290;47.716;9.070;2023-08-06T06:38:25;96346.47;;;16.45;97.66
6514;BME280;3290;47.716;9.070;2023-08-06T06:40:57;96348.31;;;16.64;94.87
6514;BME280;3290;47.716;9.070;2023-08-06T06:43:23;96347.78;;;16.47;93.44
6514;BME280;3290;47.716;9.070;2023-08-06T06:45:53;96361.50;;;16.84;94.39
6514;BME280;3290;47.716;9.070;2023-08-06T06:48:19;96371.03;;;16.90;96.28
6514;BME280;3290;47.716;9.070;2023-08-06T06:50:47;96367.84;;;16.53;95.30
6514;BME280;3290;47.716;9.070;2023-08-06T06:53:13;96368.13;;;16.57;94.23
6514;BME280;3290;47.716;9.070;2023-08-06T06:55:38;96356.22;;;16.44;94.60
6514;BME280;3290;47.716;9.070;2023-08-06T06:58:04;96367.34;;;16.42;95.37
6514;BME280;3290;47.716;9.070;2023-08-06T07:00:29;96376.56;;;16.34;94.67
6514;BME280;3290;47.716;9.070;2023-08-06T07:02:54;96369.44;;;16.44;96.12
6514;BME280;3290;47.716;9.070;2023-08-06T07:05:20;96381.06;;;16.34;98.91
6514;BME280;3290;47.716;9.070;2023-08-06T07:07:45;96363.31;;;16.14;99.40
6514;BME280;3290;47.716;9.070;2023-08-06T07:10:11;96381.81;;;16.14;98.78
6514;BME280;3290;47.716;9.070;2023-08-06T07:12:36;96385.78;;;16.17;98.60
6514;BME280;3290;47.716;9.070;2023-08-06T07:15:05;96388.75;;;16.30;99.28
6514;BME280;3290;47.716;9.070;2023-08-06T07:17:31;96387.59;;;15.97;98.43
6514;BME280;3290;47.716;9.070;2023-08-06T07:19:56;96383.63;;;16.04;98.08
6514;BME280;3290;47.716;9.070;2023-08-06T07:22:21;96380.66;;;15.76;99.03
6514;BME280;3290;47.716;9.070;2023-08-06T07:24:47;96387.31;;;15.98;98.45
6514;BME280;3290;47.716;9.070;2023-08-06T07:27:12;96400.56;;;16.13;98.11
6514;BME280;3290;47.716;9.070;2023-08-06T07:29:37;96402.13;;;15.99;99.04
6514;BME280;3290;47.716;9.070;2023-08-06T07:32:03;96393.63;;;15.82;100.00
6514;BME280;3290;47.716;9.070;2023-08-06T07:34:28;96402.63;;;15.91;100.00
6514;BME280;3290;47.716;9.070;2023-08-06T07:36:54;96404.78;;;16.09;100.00
6514;BME280;3290;47.716;9.070;2023-08-06T07:39:19;96402.06;;;15.79;100.00
6514;BME280;3290;47.716;9.070;2023-08-06T07:41:44;96397.28;;;15.71;100.00
6514;BME280;3290;47.716;9.070;2023-08-06T07:44:11;96401.56;;;15.87;100.00
6514;BME280;3290;47.716;9.070;2023-08-06T07:46:36;96402.34;;;15.83;100.00
6514;BME280;3290;47.716;9.070;2023-08-06T07:49:02;96394.19;;;15.94;100.00
6514;BME280;3290;47.716;9.070;2023-08-06T07:51:28;96409.03;;;16.10;100.00
6514;BME280;3290;47.716;9.070;2023-08-06T07:53:53;96399.50;;;16.09;100.00
6514;BME280;3290;47.716;9.070;2023-08-06T07:56:18;96398.19;;;16.11;99.22
6514;BME280;3290;47.716;9.070;2023-08-06T07:58:44;96405.84;;;16.08;98.41
6514;BME280;3290;47.716;9.070;2023-08-06T08:01:09;96410.69;;;16.36;99.73
6514;BME280;3290;47.716;9.070;2023-08-06T08:03:35;96404.34;;;16.32;99.54
6514;BME280;3290;47.716;9.070;2023-08-06T08:06:00;96409.88;;;16.25;99.00
6514;BME280;3290;47.716;9.070;2023-08-06T08:08:25;96415.38;;;16.14;98.96
6514;BME280;3290;47.716;9.070;2023-08-06T08:10:52;96405.69;;;16.29;99.12
6514;BME280;3290;47.716;9.070;2023-08-06T08:13:17;96412.81;;;16.34;97.55
6514;BME280;3290;47.716;9.070;2023-08-06T08:15:43;96401.16;;;16.25;97.81
6514;BME280;3290;47.716;9.070;2023-08-06T08:18:09;96413.31;;;16.31;100.00
6514;BME280;3290;47.716;9.070;2023-08-06T08:20:34;96415.69;;;16.27;100.00
6514;BME280;3290;47.716;9.070;2023-08-06T08:23:01;96412.69;;;16.04;100.00
6514;BME280;3290;47.716;9.070;2023-08-06T08:25:26;96408.44;;;15.93;100.00
6514;BME280;3290;47.716;9.070;2023-08-06T08:27:56;96414.72;;;15.72;100.00
6514;BME280;3290;47.716;9.070;2023-08-06T08:30:21;96414.66;;;15.62;100.00
6514;BME280;3290;47.716;9.070;2023-08-06T08:32:47;96410.50;;;15.76;100.00
6514;BME280;3290;47.716;9.070;2023-08-06T08:35:13;96401.28;;;15.84;100.00
6514;BME280;3290;47.716;9.070;2023-08-06T08:37:39;96418.47;;;15.91;100.00
6514;BME280;3290;47.716;9.070;2023-08-06T08:40:06;96418.00;;;16.04;100.00
6514;BME280;3290;47.716;9.070;2023-08-06T08:42:32;96431.16;;;15.89;100.00
6514;BME280;3290;47.716;9.070;2023-08-06T08:44:57;96412.69;;;16.04;100.00
6514;BME280;3290;47.716;9.070;2023-08-06T08:47:24;96428.09;;;16.17;100.00
6514;BME280;3290;47.716;9.070;2023-08-06T08:49:52;96424.88;;;16.15;100.00
6514;BME280;3290;47.716;9.070;2023-08-06T08:52:21;96414.25;;;15.95;100.00
6514;BME280;3290;47.716;9.070;2023-08-06T08:54:48;96430.06;;;15.85;100.00
6514;BME280;3290;47.716;9.070;2023-08-06T08:57:17;96428.59;;;16.09;100.00
6514;BME280;3290;47.716;9.070;2023-08-06T08:59:42;96426.69;;;16.04;100.00
6514;BME280;3290;47.716;9.070;2023-08-06T09:02:10;96440.22;;;16.13;100.00
6514;BME280;3290;47.716;9.070;2023-08-06T09:04:37;96436.28;;;16.15;100.00
6514;BME280;3290;47.716;9.070;2023-08-06T09:07:03;96445.91;;;15.75;100.00
6514;BME280;3290;47.716;9.070;2023-08-06T09:09:34;96443.22;;;15.70;100.00
6514;BME280;3290;47.716;9.070;2023-08-06T09:12:15;96459.56;;;15.62;100.00
6514;BME280;3290;47.716;9.070;2023-08-06T09:14:41;96449.31;;;15.71;100.00
6514;BME280;3290;47.716;9.070;2023-08-06T09:17:07;96455.53;;;16.06;100.00
6514;BME280;3290;47.716;9.070;2023-08-06T09:19:33;96454.25;;;15.58;100.00
6514;BME280;3290;47.716;9.070;2023-08-06T09:21:59;96458.09;;;15.86;100.00
6514;BME280;3290;47.716;9.070;2023-08-06T09:24:24;96461.09;;;16.14;100.00
6514;BME280;3290;47.716;9.070;2023-08-06T09:26:51;96462.16;;;16.08;100.00
6514;BME280;3290;47.716;9.070;2023-08-06T09:29:16;96479.53;;;15.44;100.00
6514;BME280;3290;47.716;9.070;2023-08-06T09:34:21;96488.59;;;15.58;100.00
6514;BME280;3290;47.716;9.070;2023-08-06T09:36:48;96457.41;;;15.55;100.00
6514;BME280;3290;47.716;9.070;2023-08-06T09:39:15;96467.72;;;15.56;100.00
6514;BME280;3290;47.716;9.070;2023-08-06T09:41:41;96470.50;;;15.81;100.00
6514;BME280;3290;47.716;9.070;2023-08-06T09:44:20;96448.56;;;15.80;100.00
6514;BME280;3290;47.716;9.070;2023-08-06T09:46:51;96468.19;;;16.04;100.00
6514;BME280;3290;47.716;9.070;2023-08-06T09:49:24;96459.75;;;16.07;100.00
6514;BME280;3290;47.716;9.070;2023-08-06T09:51:51;96464.53;;;16.05;100.00
6514;BME280;3290;47.716;9.070;2023-08-06T09:54:18;96462.81;;;16.50;100.00
6514;BME280;3290;47.716;9.070;2023-08-06T09:56:44;96467.81;;;16.32;100.00
6514;BME280;3290;47.716;9.070;2023-08-06T09:59:10;96466.19;;;16.31;100.00
6514;BME280;3290;47.716;9.070;2023-08-06T10:01:38;96471.28;;;16.57;100.00
6514;BME280;3290;47.716;9.070;2023-08-06T10:04:05;96468.94;;;16.80;99.22
6514;BME280;3290;47.716;9.070;2023-08-06T10:06:34;96467.91;;;17.21;96.93
6514;BME280;3290;47.716;9.070;2023-08-06T10:09:03;96489.06;;;17.06;96.33
6514;BME280;3290;47.716;9.070;2023-08-06T10:11:29;96475.56;;;16.83;95.22
6514;BME280;3290;47.716;9.070;2023-08-06T10:14:25;96485.88;;;16.79;98.57
6514;BME280;3290;47.716;9.070;2023-08-06T10:16:52;96481.66;;;16.73;97.96
6514;BME280;3290;47.716;9.070;2023-08-06T10:19:18;96488.00;;;16.82;100.00
6514;BME280;3290;47.716;9.070;2023-08-06T10:22:11;96489.53;;;16.58;100.00
6514;BME280;3290;47.716;9.070;2023-08-06T10:27:11;96471.81;;;16.59;100.00
6514;BME280;3290;47.716;9.070;2023-08-06T10:29:37;96486.91;;;16.63;100.00
6514;BME280;3290;47.716;9.070;2023-08-06T10:32:03;96467.19;;;16.15;100.00
6514;BME280;3290;47.716;9.070;2023-08-06T10:34:53;96487.66;;;16.44;100.00
6514;BME280;3290;47.716;9.070;2023-08-06T10:37:20;96490.81;;;16.31;100.00
6514;BME280;3290;47.716;9.070;2023-08-06T10:39:52;96476.69;;;16.11;100.00
6514;BME280;3290;47.716;9.070;2023-08-06T10:42:28;96492.69;;;16.41;100.00
6514;BME280;3290;47.716;9.070;2023-08-06T10:47:41;96503.13;;;17.06;99.52
6514;BME280;3290;47.716;9.070;2023-08-06T10:50:16;96501.50;;;16.95;98.58
6514;BME280;3290;47.716;9.070;2023-08-06T10:52:43;96484.84;;;17.24;97.83
6514;BME280;3290;47.716;9.070;2023-08-06T10:55:09;96492.25;;;17.57;96.12
6514;BME280;3290;47.716;9.070;2023-08-06T10:57:35;96487.47;;;17.49;94.90
6514;BME280;3290;47.716;9.070;2023-08-06T11:00:00;96489.06;;;17.11;96.03
6514;BME280;3290;47.716;9.070;2023-08-06T11:02:26;96495.34;;;17.94;94.08
6514;BME280;3290;47.716;9.070;2023-08-06T11:04:52;96496.47;;;17.58;90.80
6514;BME280;3290;47.716;9.070;2023-08-06T11:07:17;96500.47;;;17.51;93.18
6514;BME280;3290;47.716;9.070;2023-08-06T11:09:42;96503.63;;;17.58;92.40
6514;BME280;3290;47.716;9.070;2023-08-06T11:12:11;96510.28;;;17.25;92.27
6514;BME280;3290;47.716;9.070;2023-08-06T11:14:36;96498.59;;;17.46;92.69
6514;BME280;3290;47.716;9.070;2023-08-06T11:17:04;96500.16;;;17.77;89.97
6514;BME280;3290;47.716;9.070;2023-08-06T11:19:30;96501.19;;;17.81;90.49
6514;BME280;3290;47.716;9.070;2023-08-06T11:21:56;96515.78;;;17.73;88.65
6514;BME280;3290;47.716;9.070;2023-08-06T11:24:23;96498.25;;;17.87;89.14
6514;BME280;3290;47.716;9.070;2023-08-06T11:26:49;96503.31;;;17.84;86.62
6514;BME280;3290;47.716;9.070;2023-08-06T11:29:15;96496.88;;;18.04;88.27
6514;BME280;3290;47.716;9.070;2023-08-06T11:31:40;96513.66;;;17.80;89.16
6514;BME280;3290;47.716;9.070;2023-08-06T11:34:06;96508.69;;;17.29;91.50
6514;BME280;3290;47.716;9.070;2023-08-06T11:36:39;96507.34;;;17.42;89.83
6514;BME280;3290;47.716;9.070;2023-08-06T11:39:05;96504.41;;;17.63;89.47
6514;BME280;3290;47.716;9.070;2023-08-06T11:41:31;96503.94;;;17.41;87.77
6514;BME280;3290;47.716;9.070;2023-08-06T11:43:58;96516.09;;;17.42;88.43
6514;BME280;3290;47.716;9.070;2023-08-06T11:46:23;96503.81;;;17.91;88.78
6514;BME280;3290;47.716;9.070;2023-08-06T11:48:58;96506.47;;;17.96;83.85
6514;BME280;3290;47.716;9.070;2023-08-06T11:51:27;96512.03;;;17.89;84.68
6514;BME280;3290;47.716;9.070;2023-08-06T11:53:57;96505.69;;;18.53;84.33
6514;BME280;3290;47.716;9.070;2023-08-06T11:56:24;96504.88;;;18.62;83.53
6514;BME280;3290;47.716;9.070;2023-08-06T11:58:50;96513.00;;;18.28;82.80
6514;BME280;3290;47.716;9.070;2023-08-06T12:01:15;96503.72;;;18.25;85.10
6514;BME280;3290;47.716;9.070;2023-08-06T12:03:41;96515.47;;;18.09;81.40
6514;BME280;3290;47.716;9.070;2023-08-06T12:06:06;96522.25;;;18.30;85.74
6514;BME280;3290;47.716;9.070;2023-08-06T12:08:32;96513.44;;;17.47;82.43
6514;BME280;3290;47.716;9.070;2023-08-06T12:10:58;96512.22;;;18.07;83.34
6514;BME280;3290;47.716;9.070;2023-08-06T12:13:23;96524.03;;;17.47;84.63
6514;BME280;3290;47.716;9.070;2023-08-06T12:15:49;96538.09;;;17.38;85.89
6514;BME280;3290;47.716;9.070;2023-08-06T12:18:14;96516.56;;;17.69;87.17
6514;BME280;3290;47.716;9.070;2023-08-06T12:20:39;96534.13;;;17.55;85.60
6514;BME280;3290;47.716;9.070;2023-08-06T12:23:05;96543.91;;;17.30;86.71
6514;BME280;3290;47.716;9.070;2023-08-06T12:25:30;96543.38;;;17.28;89.56
6514;BME280;3290;47.716;9.070;2023-08-06T12:27:55;96529.34;;;17.23;88.86
6514;BME280;3290;47.716;9.070;2023-08-06T12:30:21;96544.72;;;17.45;87.09
6514;BME280;3290;47.716;9.070;2023-08-06T12:32:46;96534.34;;;17.73;86.47
6514;BME280;3290;47.716;9.070;2023-08-06T12:35:12;96544.97;;;17.59;87.99
6514;BME280;3290;47.716;9.070;2023-08-06T12:37:39;96532.50;;;17.49;87.45
6514;BME280;3290;47.716;9.070;2023-08-06T12:40:05;96551.84;;;17.50;87.24
6514;BME280;3290;47.716;9.070;2023-08-06T12:42:30;96548.94;;;17.22;87.42
6514;BME280;3290;47.716;9.070;2023-08-06T12:44:55;96539.94;;;17.18;89.03
6514;BME280;3290;47.716;9.070;2023-08-06T12:47:21;96559.81;;;17.45;89.46
6514;BME280;3290;47.716;9.070;2023-08-06T12:49:46;96562.19;;;17.46;89.33
6514;BME280;3290;47.716;9.070;2023-08-06T12:52:12;96558.19;;;17.34;88.22
6514;BME280;3290;47.716;9.070;2023-08-06T12:54:40;96567.72;;;17.10;88.52
6514;BME280;3290;47.716;9.070;2023-08-06T12:57:05;96557.69;;;17.17;86.72
6514;BME280;3290;47.716;9.070;2023-08-06T12:59:31;96566.97;;;17.29;86.44
6514;BME280;3290;47.716;9.070;2023-08-06T13:01:58;96555.03;;;17.42;85.90
6514;BME280;3290;47.716;9.070;2023-08-06T13:04:23;96562.19;;;17.36;87.26
6514;BME280;3290;47.716;9.070;2023-08-06T13:06:49;96552.91;;;17.68;86.50
6514;BME280;3290;47.716;9.070;2023-08-06T13:09:15;96570.09;;;17.81;87.48
6514;BME280;3290;47.716;9.070;2023-08-06T13:11:41;96561.13;;;17.27;86.20
6514;BME280;3290;47.716;9.070;2023-08-06T13:14:08;96570.41;;;17.35;82.39
6514;BME280;3290;47.716;9.070;2023-08-06T13:16:35;96557.41;;;17.53;83.57
6514;BME280;3290;47.716;9.070;2023-08-06T13:19:00;96555.56;;;17.24;83.63
6514;BME280;3290;47.716;9.070;2023-08-06T13:21:59;96552.91;;;17.54;84.45
6514;BME280;3290;47.716;9.070;2023-08-06T13:24:25;96562.97;;;17.71;84.32
6514;BME280;3290;47.716;9.070;2023-08-06T13:26:50;96562.72;;;17.38;81.54
6514;BME280;3290;47.716;9.070;2023-08-06T13:29:16;96572.75;;;17.91;81.63
6514;BME280;3290;47.716;9.070;2023-08-06T13:31:41;96560.53;;;17.95;83.81
6514;BME280;3290;47.716;9.070;2023-08-06T13:34:06;96561.53;;;18.28;81.85